Time;durP1;ratioP1;P1;durP2;ratioP2;P2;SDS_P1;SDS_P2;PMS_P1;PMS_P2;Temp;Humidity;BMP_temperature;BMP_pressure;BME280_temperature;BME280_humidity;BME280_pressure;Samples;Min_cycle;Max_cycle;Signal;HPM_P1;HPM_P2
2022/05/06 00:01:55;;;;;;;9.77;5.37;;;;;;;;;;5048172;28;20104;-71
2022/05/06 00:04:20;;;;;;;12.20;5.07;;;;;;;;;;5068590;28;20274;-71
2022/05/06 00:06:46;;;;;;;7.95;4.90;;;;;;;;;;5068642;28;20348;-71
2022/05/06 00:09:11;;;;;;;13.87;5.40;;;;;;;;;;5068834;28;20024;-71
2022/05/06 00:11:36;;;;;;;13.35;5.38;;;;;;;;;;5070626;28;20273;-71
2022/05/06 00:14:01;;;;;;;9.13;5.38;;;;;;;;;;5069912;28;20020;-71
2022/05/06 00:16:27;;;;;;;10.48;5.60;;;;;;;;;;5071110;28;20075;-71
2022/05/06 00:18:53;;;;;;;9.77;5.35;;;;;;;;;;5070536;28;20425;-71
2022/05/06 00:21:18;;;;;;;16.67;5.65;;;;;;;;;;5072751;28;20035;-71
2022/05/06 00:23:43;;;;;;;8.13;5.25;;;;;;;;;;5071506;28;20099;-71
2022/05/06 00:26:09;;;;;;;15.50;5.95;;;;;;;;;;5071665;28;20029;-71
2022/05/06 00:28:34;;;;;;;12.57;5.32;;;;;;;;;;5070210;28;20043;-71
2022/05/06 00:31:02;;;;;;;11.07;5.10;;;;;;;;;;5071129;28;20024;-71
2022/05/06 00:33:28;;;;;;;11.63;5.82;;;;;;;;;;5071093;28;20020;-71
2022/05/06 00:35:54;;;;;;;7.65;5.10;;;;;;;;;;5070755;28;20125;-71
2022/05/06 00:38:20;;;;;;;12.95;5.57;;;;;;;;;;5068577;28;20021;-71
2022/05/06 00:40:45;;;;;;;9.93;5.53;;;;;;;;;;5050304;28;20013;-71
2022/05/06 00:43:10;;;;;;;15.77;5.53;;;;;;;;;;5069930;28;20030;-71
2022/05/06 00:45:39;;;;;;;10.23;5.50;;;;;;;;;;5071148;28;20012;-69
2022/05/06 00:48:04;;;;;;;10.25;5.00;;;;;;;;;;5068554;28;20081;-71
2022/05/06 00:50:30;;;;;;;9.25;5.07;;;;;;;;;;5069978;28;20016;-71
2022/05/06 00:52:55;;;;;;;16.80;5.82;;;;;;;;;;5066019;28;20393;-71
2022/05/06 00:55:21;;;;;;;10.00;5.70;;;;;;;;;;5069869;28;20112;-71
2022/05/06 00:57:46;;;;;;;10.20;5.60;;;;;;;;;;5070652;28;20091;-71
2022/05/06 01:00:18;;;;;;;10.90;5.95;;;;;;;;;;5070133;28;20107;-71
2022/05/06 01:02:44;;;;;;;8.57;5.03;;;;;;;;;;5069985;28;20513;-71
2022/05/06 01:05:09;;;;;;;11.20;4.97;;;;;;;;;;5068831;28;20099;-71
2022/05/06 01:07:35;;;;;;;11.48;5.50;;;;;;;;;;5067775;28;20107;-71
2022/05/06 01:10:00;;;;;;;10.70;5.35;;;;;;;;;;5052031;28;20029;-71
2022/05/06 01:12:25;;;;;;;13.23;5.45;;;;;;;;;;5070957;28;20423;-71
2022/05/06 01:14:50;;;;;;;10.38;4.97;;;;;;;;;;5070806;28;20087;-71
2022/05/06 01:17:16;;;;;;;20.47;5.97;;;;;;;;;;5070690;28;20108;-71
2022/05/06 01:19:41;;;;;;;9.77;5.03;;;;;;;;;;5069588;28;20266;-71
2022/05/06 01:22:06;;;;;;;10.05;5.75;;;;;;;;;;5069050;28;20017;-71
2022/05/06 01:24:31;;;;;;;10.52;5.88;;;;;;;;;;5069443;28;20031;-71
2022/05/06 01:26:57;;;;;;;12.82;6.28;;;;;;;;;;5059662;28;20486;-71
2022/05/06 01:29:22;;;;;;;10.02;5.65;;;;;;;;;;5070092;28;20054;-70
2022/05/06 01:31:49;;;;;;;12.90;5.22;;;;;;;;;;5070339;28;20476;-70
2022/05/06 01:34:15;;;;;;;14.38;5.50;;;;;;;;;;5068139;28;20476;-70
2022/05/06 01:36:40;;;;;;;11.35;5.28;;;;;;;;;;5067033;28;20028;-70
2022/05/06 01:39:06;;;;;;;15.05;7.53;;;;;;;;;;5068846;28;20013;-70
2022/05/06 01:41:35;;;;;;;15.30;6.68;;;;;;;;;;5050027;28;20115;-71
2022/05/06 01:44:03;;;;;;;10.25;5.32;;;;;;;;;;5067106;28;20074;-71
2022/05/06 01:46:29;;;;;;;13.05;6.32;;;;;;;;;;5069509;28;20032;-71
2022/05/06 01:48:54;;;;;;;12.95;6.82;;;;;;;;;;5066334;28;20024;-71
2022/05/06 01:51:20;;;;;;;12.45;5.70;;;;;;;;;;5067068;28;20031;-71
2022/05/06 01:53:45;;;;;;;10.10;6.10;;;;;;;;;;5069360;28;20086;-71
2022/05/06 01:56:10;;;;;;;10.27;6.00;;;;;;;;;;5069611;28;20214;-71
2022/05/06 01:58:36;;;;;;;12.43;6.35;;;;;;;;;;5067704;28;20028;-71
2022/05/06 02:01:01;;;;;;;10.60;5.47;;;;;;;;;;5070397;28;20104;-70
2022/05/06 02:06:11;;;;;;;13.05;6.13;;;;;;;;;;5069429;28;20074;-70
2022/05/06 02:08:36;;;;;;;10.13;5.57;;;;;;;;;;5067474;28;20107;-70
2022/05/06 02:11:02;;;;;;;9.83;5.47;;;;;;;;;;5069557;28;20112;-70
2022/05/06 02:13:28;;;;;;;12.57;6.03;;;;;;;;;;5065979;28;20274;-71
2022/05/06 02:15:53;;;;;;;9.88;5.53;;;;;;;;;;5069380;28;20029;-71
2022/05/06 02:18:18;;;;;;;8.65;5.65;;;;;;;;;;5069378;28;20556;-71
2022/05/06 02:20:44;;;;;;;12.98;7.07;;;;;;;;;;5068290;28;20070;-71
2022/05/06 02:23:09;;;;;;;13.07;6.47;;;;;;;;;;5050066;28;20029;-71
2022/05/06 02:25:35;;;;;;;13.33;6.20;;;;;;;;;;5058042;28;20020;-71
2022/05/06 02:28:01;;;;;;;12.35;6.20;;;;;;;;;;5067037;28;20336;-71
2022/05/06 02:33:14;;;;;;;14.05;6.10;;;;;;;;;;5072979;28;20027;-71
2022/05/06 02:35:40;;;;;;;11.73;6.60;;;;;;;;;;5069072;28;20435;-70
2022/05/06 02:38:06;;;;;;;15.63;6.35;;;;;;;;;;5068888;28;20039;-70
2022/05/06 02:40:32;;;;;;;12.23;6.38;;;;;;;;;;5067908;28;20389;-70
2022/05/06 02:42:57;;;;;;;10.00;6.28;;;;;;;;;;5066371;28;20074;-70
2022/05/06 02:45:23;;;;;;;15.40;6.00;;;;;;;;;;5068789;28;20020;-71
2022/05/06 02:47:48;;;;;;;11.83;6.03;;;;;;;;;;5054796;28;20314;-70
2022/05/06 02:50:13;;;;;;;10.50;6.90;;;;;;;;;;5068859;28;20263;-71
2022/05/06 02:52:38;;;;;;;12.48;5.85;;;;;;;;;;5068454;28;20297;-71
2022/05/06 02:55:04;;;;;;;10.63;5.90;;;;;;;;;;5068328;28;20025;-71
2022/05/06 02:57:29;;;;;;;11.25;5.82;;;;;;;;;;5068281;28;20096;-71
2022/05/06 02:59:54;;;;;;;15.27;5.40;;;;;;;;;;5068884;28;20107;-71
2022/05/06 03:02:19;;;;;;;12.88;5.82;;;;;;;;;;5065124;28;20024;-71
2022/05/06 03:04:44;;;;;;;12.47;5.77;;;;;;;;;;5069040;28;20065;-71
2022/05/06 03:07:10;;;;;;;11.43;6.72;;;;;;;;;;5068254;28;20285;-71
2022/05/06 03:09:38;;;;;;;16.05;6.68;;;;;;;;;;5067072;28;20085;-71
2022/05/06 03:12:03;;;;;;;10.73;5.63;;;;;;;;;;5067479;28;20017;-71
2022/05/06 03:14:28;;;;;;;9.75;6.25;;;;;;;;;;5068338;28;20043;-71
2022/05/06 03:16:53;;;;;;;13.17;6.53;;;;;;;;;;5054780;28;20054;-71
2022/05/06 03:19:19;;;;;;;15.35;7.00;;;;;;;;;;5068314;28;20627;-71
2022/05/06 03:21:47;;;;;;;13.77;6.07;;;;;;;;;;5068346;28;20017;-71
2022/05/06 03:24:13;;;;;;;16.80;6.40;;;;;;;;;;5067378;28;20104;-71
2022/05/06 03:26:38;;;;;;;14.00;6.72;;;;;;;;;;5066954;28;20099;-71
2022/05/06 03:29:03;;;;;;;11.53;6.60;;;;;;;;;;5068165;28;20028;-71
2022/05/06 03:31:28;;;;;;;14.05;6.53;;;;;;;;;;5067194;28;20324;-71
2022/05/06 03:33:54;;;;;;;12.30;6.78;;;;;;;;;;5067195;28;20020;-70
2022/05/06 03:36:20;;;;;;;13.60;6.85;;;;;;;;;;5068831;28;20020;-70
2022/05/06 03:38:45;;;;;;;11.25;6.55;;;;;;;;;;5066651;28;20021;-70
2022/05/06 03:41:11;;;;;;;16.13;7.20;;;;;;;;;;5066457;28;20095;-70
2022/05/06 03:43:36;;;;;;;10.57;6.18;;;;;;;;;;5066966;28;20108;-70
2022/05/06 03:46:01;;;;;;;11.57;6.97;;;;;;;;;;5066213;28;20020;-70
2022/05/06 03:48:26;;;;;;;15.80;6.00;;;;;;;;;;5065581;28;20017;-70
2022/05/06 03:51:34;;;;;;;12.95;6.97;;;;;;;;;;5067140;28;20293;-70
2022/05/06 03:53:40;;;;;;;15.48;7.20;;;;;;;;;;5063033;28;20094;-70
2022/05/06 03:56:05;;;;;;;11.98;6.28;;;;;;;;;;5063743;28;20020;-70
2022/05/06 03:58:32;;;;;;;13.77;6.75;;;;;;;;;;5068465;28;20727;-70
2022/05/06 04:00:57;;;;;;;17.52;6.93;;;;;;;;;;5068624;28;20101;-70
2022/05/06 04:03:22;;;;;;;17.50;7.90;;;;;;;;;;5068311;28;20098;-70
2022/05/06 04:05:48;;;;;;;15.68;7.18;;;;;;;;;;5066493;28;20066;-70
2022/05/06 04:08:13;;;;;;;18.45;6.32;;;;;;;;;;5067395;28;20052;-70
2022/05/06 04:10:38;;;;;;;14.40;6.80;;;;;;;;;;5066688;28;20021;-70
2022/05/06 04:13:03;;;;;;;11.75;7.20;;;;;;;;;;5066113;28;20062;-70
2022/05/06 04:15:32;;;;;;;17.42;6.35;;;;;;;;;;5065842;28;20020;-70
2022/05/06 04:17:57;;;;;;;11.95;6.72;;;;;;;;;;5065326;28;20096;-70
2022/05/06 04:25:50;;;;;;;14.52;7.55;;;;;;;;;;5065062;28;20032;-70
2022/05/06 04:28:16;;;;;;;14.82;7.65;;;;;;;;;;5066315;28;20032;-70
2022/05/06 04:30:41;;;;;;;12.13;6.78;;;;;;;;;;5052941;28;20016;-70
2022/05/06 04:33:06;;;;;;;14.67;6.70;;;;;;;;;;5066866;28;20020;-70
2022/05/06 04:35:31;;;;;;;12.77;6.07;;;;;;;;;;5065792;28;20313;-70
2022/05/06 04:37:56;;;;;;;15.02;6.72;;;;;;;;;;5067155;28;20031;-71
2022/05/06 04:40:22;;;;;;;11.80;6.60;;;;;;;;;;5068025;28;20046;-70
2022/05/06 04:42:47;;;;;;;13.40;6.23;;;;;;;;;;5065670;28;20055;-71
2022/05/06 04:45:12;;;;;;;17.40;7.22;;;;;;;;;;5067523;28;20275;-71
2022/05/06 04:47:37;;;;;;;12.25;6.85;;;;;;;;;;5066567;28;20476;-71
2022/05/06 04:50:04;;;;;;;17.43;7.90;;;;;;;;;;5066386;28;20028;-70
2022/05/06 04:52:30;;;;;;;11.43;6.25;;;;;;;;;;5047359;28;20303;-71
2022/05/06 04:54:55;;;;;;;14.43;6.63;;;;;;;;;;5070288;28;20063;-71
2022/05/06 04:57:20;;;;;;;16.50;6.80;;;;;;;;;;5069922;28;20036;-71
2022/05/06 04:59:47;;;;;;;15.25;8.00;;;;;;;;;;5072064;28;20285;-71
2022/05/06 05:02:13;;;;;;;11.80;6.10;;;;;;;;;;5069086;28;20020;-70
2022/05/06 05:04:39;;;;;;;12.38;6.50;;;;;;;;;;5070342;28;20044;-70
2022/05/06 05:07:04;;;;;;;15.90;6.43;;;;;;;;;;5051773;28;20055;-70
2022/05/06 05:09:29;;;;;;;14.82;6.47;;;;;;;;;;5069994;28;20422;-71
2022/05/06 05:11:55;;;;;;;12.63;7.03;;;;;;;;;;5067440;28;20041;-70
2022/05/06 05:14:20;;;;;;;12.27;6.55;;;;;;;;;;5069004;28;20286;-71
2022/05/06 05:16:45;;;;;;;13.90;6.80;;;;;;;;;;5067194;28;20290;-70
2022/05/06 05:19:10;;;;;;;14.90;7.07;;;;;;;;;;5068351;28;20025;-70
2022/05/06 05:21:35;;;;;;;12.57;6.43;;;;;;;;;;5066511;28;20016;-71
2022/05/06 05:24:01;;;;;;;14.98;6.88;;;;;;;;;;5068766;28;20633;-71
2022/05/06 05:26:26;;;;;;;12.03;5.97;;;;;;;;;;5067583;28;20443;-71
2022/05/06 05:28:51;;;;;;;12.65;6.57;;;;;;;;;;5067814;28;20706;-70
2022/05/06 05:31:16;;;;;;;15.15;7.40;;;;;;;;;;5067081;28;20063;-70
2022/05/06 05:33:41;;;;;;;16.60;7.43;;;;;;;;;;5066919;28;20476;-70
2022/05/06 05:36:07;;;;;;;17.00;6.90;;;;;;;;;;5067436;28;20285;-70
2022/05/06 05:38:32;;;;;;;18.08;7.03;;;;;;;;;;5068164;28;20671;-70
2022/05/06 05:40:57;;;;;;;14.20;7.23;;;;;;;;;;5046733;28;20028;-70
2022/05/06 05:48:51;;;;;;;17.63;7.80;;;;;;;;;;5070710;28;20027;-70
2022/05/06 05:51:16;;;;;;;16.23;7.93;;;;;;;;;;5069436;28;20024;-70
2022/05/06 05:53:41;;;;;;;13.90;7.28;;;;;;;;;;5068540;28;20059;-70
2022/05/06 05:56:06;;;;;;;17.23;8.90;;;;;;;;;;5070053;28;20107;-70
2022/05/06 05:58:33;;;;;;;13.90;7.07;;;;;;;;;;5068946;28;20023;-70
2022/05/06 06:00:59;;;;;;;31.85;8.75;;;;;;;;;;5069725;28;20023;-70
2022/05/06 06:03:24;;;;;;;18.23;7.72;;;;;;;;;;5071043;28;20477;-70
2022/05/06 06:05:49;;;;;;;21.07;8.57;;;;;;;;;;5068589;28;20023;-70
2022/05/06 06:08:14;;;;;;;17.17;8.02;;;;;;;;;;5066972;28;20349;-70
2022/05/06 06:10:40;;;;;;;17.30;7.97;;;;;;;;;;5069944;28;20391;-71
2022/05/06 06:13:05;;;;;;;10.43;5.20;;;;;;;;;;5069626;28;20069;-70
2022/05/06 06:15:31;;;;;;;12.82;5.38;;;;;;;;;;5067515;28;20469;-70
2022/05/06 06:17:56;;;;;;;24.40;9.50;;;;;;;;;;5068795;28;20025;-70
2022/05/06 06:20:23;;;;;;;23.77;9.60;;;;;;;;;;5068513;28;20036;-70
2022/05/06 06:22:48;;;;;;;21.05;10.18;;;;;;;;;;5067443;28;20020;-71
2022/05/06 06:25:14;;;;;;;24.85;11.95;;;;;;;;;;5068724;28;20028;-70
2022/05/06 06:27:39;;;;;;;20.83;9.97;;;;;;;;;;5068904;28;20037;-70
2022/05/06 06:30:04;;;;;;;22.00;11.45;;;;;;;;;;5069083;28;20263;-70
2022/05/06 06:32:29;;;;;;;34.25;10.75;;;;;;;;;;5064709;28;20591;-71
2022/05/06 06:34:55;;;;;;;26.90;12.50;;;;;;;;;;5071068;28;20381;-70
2022/05/06 06:37:21;;;;;;;24.27;10.88;;;;;;;;;;5070299;28;20340;-70
2022/05/06 06:39:46;;;;;;;28.08;13.98;;;;;;;;;;5067065;28;20019;-70
2022/05/06 06:42:11;;;;;;;24.87;14.53;;;;;;;;;;5065965;28;20062;-70
2022/05/06 06:44:36;;;;;;;26.45;13.98;;;;;;;;;;5068052;28;20263;-70
2022/05/06 06:47:07;;;;;;;27.23;12.83;;;;;;;;;;5065694;28;20389;-70
2022/05/06 06:49:32;;;;;;;28.45;14.27;;;;;;;;;;5066478;28;20278;-69
2022/05/06 06:51:57;;;;;;;26.07;13.87;;;;;;;;;;5068217;28;20032;-70
2022/05/06 06:54:22;;;;;;;28.97;15.03;;;;;;;;;;5068183;28;21000;-70
2022/05/06 06:56:48;;;;;;;27.23;15.30;;;;;;;;;;5067968;28;20397;-70
2022/05/06 06:59:13;;;;;;;35.80;17.03;;;;;;;;;;5066373;28;20259;-70
2022/05/06 07:01:38;;;;;;;31.37;15.73;;;;;;;;;;5066592;28;20322;-70
2022/05/06 07:04:03;;;;;;;26.53;13.53;;;;;;;;;;5068280;28;20275;-70
2022/05/06 07:11:59;;;;;;;35.72;15.45;;;;;;;;;;5065781;28;20050;-70
2022/05/06 07:14:29;;;;;;;32.47;18.10;;;;;;;;;;5069016;28;20440;-70
2022/05/06 07:16:54;;;;;;;27.10;15.47;;;;;;;;;;5063669;28;20016;-70
2022/05/06 07:19:20;;;;;;;29.92;15.57;;;;;;;;;;5065684;28;20009;-71
2022/05/06 07:21:45;;;;;;;35.38;16.83;;;;;;;;;;5067789;28;20017;-71
2022/05/06 07:24:10;;;;;;;27.13;15.32;;;;;;;;;;5051317;28;20017;-71
2022/05/06 07:26:35;;;;;;;27.13;15.63;;;;;;;;;;5068811;28;20020;-71
2022/05/06 07:29:01;;;;;;;29.07;16.00;;;;;;;;;;5067690;28;20031;-71
2022/05/06 07:31:26;;;;;;;22.27;14.30;;;;;;;;;;5067922;28;20016;-71
2022/05/06 07:33:51;;;;;;;27.15;16.50;;;;;;;;;;5068382;28;20301;-71
2022/05/06 07:36:16;;;;;;;30.95;15.50;;;;;;;;;;5067047;28;20069;-71
2022/05/06 07:38:41;;;;;;;26.97;15.53;;;;;;;;;;5067716;28;20342;-71
2022/05/06 07:41:07;;;;;;;28.83;16.13;;;;;;;;;;5067588;28;20024;-71
2022/05/06 07:43:32;;;;;;;26.25;14.80;;;;;;;;;;5066504;28;20814;-71
2022/05/06 07:45:58;;;;;;;30.08;14.05;;;;;;;;;;5066887;28;20017;-71
2022/05/06 07:48:23;;;;;;;20.20;14.47;;;;;;;;;;5067444;28;20028;-71
2022/05/06 07:50:48;;;;;;;20.88;13.77;;;;;;;;;;5068218;28;20273;-71
2022/05/06 07:53:15;;;;;;;25.27;15.20;;;;;;;;;;5068592;28;20515;-71
2022/05/06 07:55:40;;;;;;;23.77;15.77;;;;;;;;;;5064854;28;20389;-71
2022/05/06 07:58:05;;;;;;;29.80;16.80;;;;;;;;;;5067644;28;20036;-71
2022/05/06 08:00:31;;;;;;;26.40;14.70;;;;;;;;;;5065834;28;20499;-71
2022/05/06 08:05:40;;;;;;;208.05;19.23;;;;;;;;;;5065309;28;20061;-71
2022/05/06 08:08:06;;;;;;;24.60;15.60;;;;;;;;;;5067638;28;20029;-71
2022/05/06 08:10:31;;;;;;;28.58;16.25;;;;;;;;;;5067163;28;20170;-71
2022/05/06 08:12:56;;;;;;;23.80;13.80;;;;;;;;;;5065528;28;20505;-71
2022/05/06 08:15:21;;;;;;;26.42;13.73;;;;;;;;;;5056302;28;20123;-71
2022/05/06 08:17:47;;;;;;;24.67;13.70;;;;;;;;;;5067733;28;20033;-71
2022/05/06 08:20:12;;;;;;;26.47;13.07;;;;;;;;;;5067545;28;20253;-71
2022/05/06 08:22:37;;;;;;;24.38;13.88;;;;;;;;;;5068488;28;20332;-70
2022/05/06 08:25:04;;;;;;;22.55;13.95;;;;;;;;;;5069187;28;20046;-70
2022/05/06 08:27:34;;;;;;;24.90;15.75;;;;;;;;;;5068394;28;20115;-71
2022/05/06 08:30:00;;;;;;;26.15;14.10;;;;;;;;;;5070305;28;20067;-71
2022/05/06 08:32:25;;;;;;;34.63;15.13;;;;;;;;;;5071233;28;20052;-71
2022/05/06 08:34:50;;;;;;;31.08;13.77;;;;;;;;;;5072082;28;20277;-71
2022/05/06 08:37:15;;;;;;;28.47;14.83;;;;;;;;;;5071899;28;20025;-70
2022/05/06 08:39:40;;;;;;;34.90;13.67;;;;;;;;;;5072678;28;20491;-71
2022/05/06 08:42:08;;;;;;;27.00;13.02;;;;;;;;;;5071394;28;20017;-70
2022/05/06 08:52:47;;;;;;;27.38;13.35;;;;;;;;;;5070812;28;20085;-70
2022/05/06 08:55:12;;;;;;;31.70;13.02;;;;;;;;;;5070750;28;20094;-70
2022/05/06 08:57:37;;;;;;;30.30;13.98;;;;;;;;;;5070105;28;20024;-71
2022/05/06 09:00:04;;;;;;;26.67;13.85;;;;;;;;;;5070646;28;20019;-70
2022/05/06 09:02:29;;;;;;;29.08;14.00;;;;;;;;;;5068969;28;20032;-70
2022/05/06 09:04:54;;;;;;;25.98;15.20;;;;;;;;;;5069550;28;20024;-70
2022/05/06 09:07:21;;;;;;;24.92;13.25;;;;;;;;;;5071210;28;20032;-70
2022/05/06 09:10:04;;;;;;;30.38;14.40;;;;;;;;;;5067609;28;20043;-70
2022/05/06 09:12:42;;;;;;;27.35;13.27;;;;;;;;;;5068231;28;20029;-70
2022/05/06 09:17:52;;;;;;;24.63;11.48;;;;;;;;;;5071681;28;20165;-70
2022/05/06 09:20:18;;;;;;;25.23;13.50;;;;;;;;;;5072073;28;20107;-70
2022/05/06 09:22:43;;;;;;;27.60;14.05;;;;;;;;;;5072861;28;20012;-70
2022/05/06 09:25:09;;;;;;;27.83;14.23;;;;;;;;;;5070023;28;20032;-70
2022/05/06 09:27:34;;;;;;;31.80;14.93;;;;;;;;;;5069929;28;20420;-70
2022/05/06 09:30:05;;;;;;;29.13;14.90;;;;;;;;;;5072995;28;20020;-70
2022/05/06 09:32:31;;;;;;;32.72;12.77;;;;;;;;;;5068696;28;20029;-70
2022/05/06 09:34:57;;;;;;;26.73;12.57;;;;;;;;;;5071570;28;20492;-70
2022/05/06 09:37:36;;;;;;;24.55;12.50;;;;;;;;;;5071788;28;20068;-70
2022/05/06 09:40:09;;;;;;;30.90;14.43;;;;;;;;;;5067183;28;20025;-70
2022/05/06 09:42:38;;;;;;;25.13;12.80;;;;;;;;;;5070009;28;20017;-70
2022/05/06 09:45:04;;;;;;;26.90;13.25;;;;;;;;;;5071654;28;20050;-71
2022/05/06 09:47:30;;;;;;;22.85;12.23;;;;;;;;;;5071083;28;20540;-71
2022/05/06 09:49:55;;;;;;;24.83;11.88;;;;;;;;;;5070543;28;20099;-71
2022/05/06 09:52:21;;;;;;;28.80;13.18;;;;;;;;;;5071325;28;20100;-71
2022/05/06 09:54:48;;;;;;;27.17;13.70;;;;;;;;;;5071980;28;20044;-71
2022/05/06 09:57:13;;;;;;;25.70;13.38;;;;;;;;;;5070482;28;20321;-70
2022/05/06 09:59:39;;;;;;;22.92;12.65;;;;;;;;;;5071422;28;20029;-70
2022/05/06 10:02:04;;;;;;;31.13;13.27;;;;;;;;;;5070331;28;20024;-70
2022/05/06 10:04:30;;;;;;;32.05;15.05;;;;;;;;;;5069030;28;20684;-70
2022/05/06 10:06:57;;;;;;;27.58;12.55;;;;;;;;;;5066987;28;20435;-70
2022/05/06 10:09:23;;;;;;;28.58;12.57;;;;;;;;;;5069901;28;20020;-70
2022/05/06 10:11:51;;;;;;;32.63;15.38;;;;;;;;;;5069536;28;20124;-70
2022/05/06 10:14:17;;;;;;;28.35;14.93;;;;;;;;;;5070264;28;20028;-70
2022/05/06 10:16:42;;;;;;;28.45;14.35;;;;;;;;;;5068536;28;20043;-70
2022/05/06 10:19:26;;;;;;;21.23;12.73;;;;;;;;;;5070262;28;20480;-69
2022/05/06 10:21:52;;;;;;;25.33;14.27;;;;;;;;;;5068166;28;20419;-70
2022/05/06 10:24:17;;;;;;;23.85;13.40;;;;;;;;;;5068193;28;20025;-70
2022/05/06 10:26:45;;;;;;;26.63;13.00;;;;;;;;;;5069883;28;20085;-70
2022/05/06 10:35:08;;;;;;;28.02;12.23;;;;;;;;;;5070462;28;20515;-70
2022/05/06 10:37:44;;;;;;;20.52;12.20;;;;;;;;;;5065639;28;20028;-70
2022/05/06 10:40:22;;;;;;;20.17;9.93;;;;;;;;;;5069325;28;20075;-70
2022/05/06 10:42:47;;;;;;;23.48;9.00;;;;;;;;;;5069607;28;20609;-70
2022/05/06 10:45:26;;;;;;;19.97;6.77;;;;;;;;;;5068427;28;20020;-70
2022/05/06 10:47:51;;;;;;;14.10;6.90;;;;;;;;;;5067679;28;20399;-70
2022/05/06 10:50:19;;;;;;;12.25;6.57;;;;;;;;;;5068941;28;20025;-70
2022/05/06 10:52:44;;;;;;;17.35;6.35;;;;;;;;;;5070088;28;20419;-70
2022/05/06 10:55:12;;;;;;;16.92;7.95;;;;;;;;;;5064726;28;20028;-70
2022/05/06 10:57:54;;;;;;;16.83;7.70;;;;;;;;;;5068764;28;20036;-70
2022/05/06 11:00:20;;;;;;;18.30;9.38;;;;;;;;;;5068266;28;20035;-70
2022/05/06 11:02:45;;;;;;;16.55;8.75;;;;;;;;;;5068469;28;20427;-70
2022/05/06 11:05:11;;;;;;;15.85;8.77;;;;;;;;;;5067047;28;20098;-69
2022/05/06 11:07:37;;;;;;;26.35;9.05;;;;;;;;;;5066841;28;20031;-69
2022/05/06 11:10:06;;;;;;;15.95;8.30;;;;;;;;;;5067991;28;20040;-69
2022/05/06 11:12:39;;;;;;;16.67;8.20;;;;;;;;;;5066742;28;20025;-69
2022/05/06 11:15:05;;;;;;;18.67;6.88;;;;;;;;;;5069295;28;20013;-71
2022/05/06 11:17:31;;;;;;;19.17;10.00;;;;;;;;;;5052377;28;20028;-69
2022/05/06 11:19:57;;;;;;;20.17;9.52;;;;;;;;;;5069864;28;20023;-69
2022/05/06 11:22:23;;;;;;;15.63;7.70;;;;;;;;;;5069952;28;20029;-70
2022/05/06 11:24:49;;;;;;;17.23;7.45;;;;;;;;;;5068997;28;20142;-69
2022/05/06 11:27:18;;;;;;;16.60;9.20;;;;;;;;;;5065317;28;20481;-70
2022/05/06 11:29:47;;;;;;;14.02;7.97;;;;;;;;;;5060634;28;20504;-70
2022/05/06 11:32:13;;;;;;;18.53;8.90;;;;;;;;;;5067108;28;20039;-70
2022/05/06 11:34:40;;;;;;;21.25;10.30;;;;;;;;;;5069558;28;20267;-70
2022/05/06 11:37:06;;;;;;;20.73;11.18;;;;;;;;;;5068268;28;20090;-70
2022/05/06 11:39:31;;;;;;;22.80;11.48;;;;;;;;;;5067975;28;20028;-70
2022/05/06 11:41:56;;;;;;;18.85;11.00;;;;;;;;;;5065871;28;20027;-70
2022/05/06 11:47:27;;;;;;;24.33;10.23;;;;;;;;;;5069568;28;20448;-70
2022/05/06 11:47:28;;;;;;;22.35;9.65;;;;;;;;;;5064841;28;20111;-70
2022/05/06 11:49:53;;;;;;;16.50;9.02;;;;;;;;;;5069279;28;20418;-70
2022/05/06 11:52:18;;;;;;;17.63;10.27;;;;;;;;;;5066445;28;20024;-70
2022/05/06 11:54:43;;;;;;;16.88;9.32;;;;;;;;;;5066208;28;20294;-70
2022/05/06 11:57:09;;;;;;;22.27;10.77;;;;;;;;;;5046722;28;20089;-70
2022/05/06 11:59:35;;;;;;;26.77;11.77;;;;;;;;;;5065516;28;20469;-70
2022/05/06 12:02:06;;;;;;;22.00;10.20;;;;;;;;;;5066100;28;20038;-70
2022/05/06 12:04:32;;;;;;;23.27;9.70;;;;;;;;;;5071023;28;20292;-70
2022/05/06 12:06:57;;;;;;;25.25;13.43;;;;;;;;;;5073873;28;20108;-70
2022/05/06 12:09:24;;;;;;;25.35;11.65;;;;;;;;;;5075343;28;20181;-70
2022/05/06 12:12:07;;;;;;;23.27;12.07;;;;;;;;;;5074375;28;20029;-70
2022/05/06 12:14:32;;;;;;;25.73;12.27;;;;;;;;;;5060152;28;20074;-70
2022/05/06 12:17:05;;;;;;;24.05;12.35;;;;;;;;;;5075425;28;20032;-70
2022/05/06 12:19:33;;;;;;;19.17;10.77;;;;;;;;;;5059604;28;20027;-69
2022/05/06 12:22:09;;;;;;;24.30;10.15;;;;;;;;;;5075107;28;20025;-70
2022/05/06 12:24:48;;;;;;;17.67;8.98;;;;;;;;;;5070942;28;20116;-70
2022/05/06 12:27:34;;;;;;;20.02;9.63;;;;;;;;;;5060995;28;20515;-70
2022/05/06 12:30:00;;;;;;;16.67;9.70;;;;;;;;;;5073931;28;20028;-70
2022/05/06 12:32:28;;;;;;;22.50;11.35;;;;;;;;;;5071582;28;20392;-70
2022/05/06 12:35:06;;;;;;;25.25;11.70;;;;;;;;;;5074280;28;20029;-70
2022/05/06 12:37:31;;;;;;;20.00;10.48;;;;;;;;;;5069945;28;20035;-70
2022/05/06 12:40:00;;;;;;;17.83;9.67;;;;;;;;;;5074289;28;20384;-70
2022/05/06 12:42:25;;;;;;;16.33;10.48;;;;;;;;;;5072298;28;20395;-70
2022/05/06 12:44:51;;;;;;;19.25;9.90;;;;;;;;;;5075973;28;20020;-69
2022/05/06 12:50:00;;;;;;;20.35;9.15;;;;;;;;;;5073060;28;20265;-70
2022/05/06 12:52:25;;;;;;;22.50;9.20;;;;;;;;;;5071355;28;20107;-70
2022/05/06 12:54:50;;;;;;;14.67;9.17;;;;;;;;;;5075220;28;20032;-69
2022/05/06 12:57:15;;;;;;;16.63;11.37;;;;;;;;;;5071905;28;20286;-69
2022/05/06 12:59:40;;;;;;;27.08;10.88;;;;;;;;;;5073448;28;20016;-69
2022/05/06 13:02:07;;;;;;;19.50;10.90;;;;;;;;;;5059558;28;20468;-69
2022/05/06 13:04:32;;;;;;;22.00;10.48;;;;;;;;;;5072946;28;20110;-69
2022/05/06 13:06:57;;;;;;;15.07;9.13;;;;;;;;;;5072668;28;20107;-69
2022/05/06 13:09:22;;;;;;;16.05;9.60;;;;;;;;;;5068236;28;20269;-69
2022/05/06 13:11:48;;;;;;;20.60;10.75;;;;;;;;;;5065117;28;20032;-69
2022/05/06 13:14:13;;;;;;;23.03;11.00;;;;;;;;;;5070246;28;20025;-70
2022/05/06 13:16:39;;;;;;;18.33;9.43;;;;;;;;;;5070143;28;20308;-71
2022/05/06 13:19:04;;;;;;;21.98;9.82;;;;;;;;;;5069745;28;20035;-70
2022/05/06 13:21:29;;;;;;;19.05;10.10;;;;;;;;;;5069871;28;20023;-69
2022/05/06 13:23:55;;;;;;;23.03;11.20;;;;;;;;;;5071489;28;20031;-69
2022/05/06 13:26:20;;;;;;;21.90;10.60;;;;;;;;;;5052676;28;20275;-71
2022/05/06 13:28:45;;;;;;;15.23;9.43;;;;;;;;;;5066265;28;20024;-70
2022/05/06 13:31:11;;;;;;;22.83;10.43;;;;;;;;;;5066019;28;20662;-69
2022/05/06 13:33:37;;;;;;;22.25;9.88;;;;;;;;;;5066180;28;20027;-69
2022/05/06 13:36:03;;;;;;;16.60;9.00;;;;;;;;;;5069185;28;20093;-69
2022/05/06 13:38:28;;;;;;;15.48;9.02;;;;;;;;;;5070722;28;20058;-70
2022/05/06 13:40:53;;;;;;;15.50;9.37;;;;;;;;;;5071649;28;20015;-69
2022/05/06 13:43:18;;;;;;;12.40;8.33;;;;;;;;;;5067697;28;20294;-69
2022/05/06 13:45:43;;;;;;;17.87;8.03;;;;;;;;;;5062855;28;20021;-70
2022/05/06 13:48:12;;;;;;;16.30;8.25;;;;;;;;;;5070854;28;20306;-71
2022/05/06 13:50:37;;;;;;;16.50;7.40;;;;;;;;;;5066628;28;20554;-70
2022/05/06 13:53:02;;;;;;;12.93;8.13;;;;;;;;;;5063420;28;20032;-71
2022/05/06 13:59:03;;;;;;;18.07;8.13;;;;;;;;;;5065695;28;20077;-70
2022/05/06 14:00:57;;;;;;;16.63;8.63;;;;;;;;;;5066845;28;20079;-70
2022/05/06 14:03:25;;;;;;;14.30;8.30;;;;;;;;;;5068430;28;20028;-70
2022/05/06 14:05:51;;;;;;;14.75;8.98;;;;;;;;;;5070147;28;20047;-70
2022/05/06 14:08:16;;;;;;;18.63;8.63;;;;;;;;;;5067722;28;20052;-70
2022/05/06 14:10:41;;;;;;;14.38;8.30;;;;;;;;;;5067853;28;20066;-70
2022/05/06 14:13:06;;;;;;;17.55;9.35;;;;;;;;;;5067033;28;20031;-69
2022/05/06 14:15:31;;;;;;;20.97;9.17;;;;;;;;;;5069073;28;20489;-70
2022/05/06 14:17:57;;;;;;;16.00;9.20;;;;;;;;;;5067742;28;20016;-69
2022/05/06 14:20:22;;;;;;;14.97;8.47;;;;;;;;;;5069204;28;20263;-71
2022/05/06 14:22:47;;;;;;;18.25;8.23;;;;;;;;;;5070860;28;20063;-69
2022/05/06 14:25:12;;;;;;;13.80;7.90;;;;;;;;;;5067739;28;20028;-69
2022/05/06 14:27:38;;;;;;;16.47;8.50;;;;;;;;;;5070870;28;20271;-70
2022/05/06 14:30:04;;;;;;;22.55;11.98;;;;;;;;;;5051850;28;20741;-69
2022/05/06 14:32:31;;;;;;;15.45;9.63;;;;;;;;;;5067478;28;20024;-69
2022/05/06 14:35:16;;;;;;;22.38;11.15;;;;;;;;;;5068842;28;20111;-70
2022/05/06 14:37:41;;;;;;;21.63;9.40;;;;;;;;;;5067806;28;20013;-70
2022/05/06 14:40:06;;;;;;;30.80;11.57;;;;;;;;;;5068796;28;20020;-70
2022/05/06 14:42:32;;;;;;;19.80;10.50;;;;;;;;;;5070109;28;20830;-70
2022/05/06 14:44:59;;;;;;;28.63;11.50;;;;;;;;;;5069394;28;20024;-72
2022/05/06 14:47:24;;;;;;;20.88;12.27;;;;;;;;;;5051358;28;20032;-69
2022/05/06 14:49:49;;;;;;;23.83;12.37;;;;;;;;;;5069097;28;20016;-71
2022/05/06 14:52:14;;;;;;;27.40;14.67;;;;;;;;;;5068921;28;20712;-70
2022/05/06 14:54:40;;;;;;;19.67;11.57;;;;;;;;;;5066930;28;20276;-72
2022/05/06 14:57:05;;;;;;;18.17;11.20;;;;;;;;;;5051100;28;20016;-71
2022/05/06 14:59:31;;;;;;;25.07;12.27;;;;;;;;;;5065109;28;20021;-69
2022/05/06 15:01:56;;;;;;;14.93;10.63;;;;;;;;;;5069867;28;20009;-70
2022/05/06 15:04:21;;;;;;;19.53;11.67;;;;;;;;;;5069948;28;20055;-69
2022/05/06 15:06:46;;;;;;;18.03;11.47;;;;;;;;;;5069670;28;20035;-71
2022/05/06 15:09:11;;;;;;;22.30;11.77;;;;;;;;;;5069532;28;20028;-69